Pagrindinis puslapis
METAR-TAF:

METAR-TAF

Oro uostai :

Derbis, Australija

platuma: 17-34-53S, ilguma: 123-49-42E, Aukštis: 91 m

Dabartinis oras

Ataskaita buvo paskelbta 36 minutes, ne 20:00 UTC
Vėjas 12 kt iš Pietų
Temperatūra 22°C
Drėgmė 25%
Slėgis 1012 hPa
Matomumas 10 km arba daugiau

METAR: YCIN 202000Z AUTO 17012KT 9999 // NCD 22/01 Q1012

Laikas: 04:36 (20:36 UTC)

Prognozė

Ataskaita buvo paskelbta 2 valandos ir 26 minutes, ne 18:10 UTC
Prognozė galioja nuo 20 metu 20 UTC su 21 metu 08 UTC
Vėjas 8 kt iš Pietų/Pietryčių
Matomumas 10 km arba daugiau
nėra debesų žemiau 1500 m ir nėra kamuolinių lietaus debesų
Nuo 20 metu 2300 UTC
Vėjas 12 kt iš Pietryčių
Matomumas 10 km arba daugiau
nėra debesų žemiau 1500 m ir nėra kamuolinių lietaus debesų

TAF: YCIN 201810Z 2020/2108 15008KT CAVOK FM202300 13012KT CAVOK

Orai ataskaitas ir orų prognozės (METAR, TAF).

turimą stotys yra geltonos ir raudonos taškus žemėlapyje.

Perkelti pele per norėdami pamatyti stoties vardą.

Tada spustelėkite, norėdami matyti oro stebėjimo ir prognozės.

Norėdami pakeisti žemėlapį: spustelėkite ant žalios mygtukų su juodo kryžiaus žemyn,; žalią mygtuką su brūkšneliu, jei norite nutolinti; arba žalių rodyklių gretimoms žemėlapius.


METAR-TAF: